John James Audubon — WDE8037 — position and weather

sailwx.info

Track history (hours):
 
Tides and Currents Weather Stations Pressure Air Temp Water Temp Dewpoint Dewpoint Depression Visibility Wind Speed Wind Dir Waves Ship Positions

John James Audubon

Owner: Statue Cruises, Jersey City, NJ. More information available from US FCC via Universal Licensing System and Coast Guard Vessel Documentation Center.

Last reported at 2017-Mar-01 19:33 UTC. Time now 2017-Mar-01 20:17 UTC.
Position N 40°42' W 074°00'.

Length 37 m.

Type: Ship. MMSI: 367400770.

Date/timePositionNaut miles runAvg speedWind from/ knotsBaromVisibWave heightAir tempDewpointWater temp
2017-Mar-01 19:33N 40°42' W 074°00'1 1.1
2017-Mar-01 18:33N 40°42' W 074°01'1 1.1
2017-Mar-01 17:33N 40°42' W 074°00'0 0.0
2017-Mar-01 16:33N 40°42' W 074°00'1 0.7
2017-Mar-01 15:33N 40°42' W 074°01'1 0.7
2017-Mar-01 14:33N 40°42' W 074°00'2 0.1
2017-Feb-28 22:33N 40°44' W 074°01'2 2.4
2017-Feb-28 21:33N 40°41' W 074°02'1 1.3
2017-Feb-28 20:33N 40°42' W 074°00'0 0.0
2017-Feb-28 19:33N 40°42' W 074°00'1 1.2
2017-Feb-28 18:33N 40°42' W 074°01'1 1.2
2017-Feb-28 17:33N 40°42' W 074°00'0 0.0
2017-Feb-28 16:34N 40°42' W 074°00'1 1.1
2017-Feb-28 15:33N 40°42' W 074°01'1 1.1
2017-Feb-28 14:33N 40°42' W 074°00'2 1.6
2017-Feb-28 13:34N 40°44' W 074°01'0 0.0
2017-Feb-27 22:33N 40°44' W 074°01'3 2.7
2017-Feb-27 21:33N 40°41' W 074°02'2 1.6
2017-Feb-27 20:33N 40°42' W 074°00'0 0.0
2017-Feb-27 19:33N 40°42' W 074°00'1 1.2
2017-Feb-27 18:33N 40°42' W 074°01'1 1.2
2017-Feb-27 17:33N 40°42' W 074°00'0 0.0
2017-Feb-27 16:33N 40°42' W 074°00'1 1.3
2017-Feb-27 15:33N 40°41' W 074°02'1 1.3
2017-Feb-27 14:34N 40°42' W 074°00'2 1.6
2017-Feb-27 13:33N 40°44' W 074°01'  
2017-Feb-24 16:34N 40°44' W 074°01'1 1.0
2017-Feb-24 15:33N 40°45' W 074°01'1 1.0
2017-Feb-24 14:33N 40°44' W 074°01'0 0.0
2017-Feb-24 13:34N 40°44' W 074°01'  
Track history (hours):
 
Tides and Currents Weather Stations Pressure Air Temp Water Temp Dewpoint Dewpoint Depression Visibility Wind Speed Wind Dir Waves Ship Positions

John James Audubon

Owner: Statue Cruises, Jersey City, NJ. More information available from US FCC via Universal Licensing System and Coast Guard Vessel Documentation Center.

Last reported at 2017-Mar-01 19:33 UTC. Time now 2017-Mar-01 20:17 UTC.
Position N 40°42' W 074°00'.

Length 37 m.

Type: Ship. MMSI: 367400770.

Date/timePositionNaut miles runAvg speedWind from/ knotsBaromVisibWave heightAir tempDewpointWater temp
2017-Mar-01 19:33N 40°42' W 074°00'1 1.1
2017-Mar-01 18:33N 40°42' W 074°01'1 1.1
2017-Mar-01 17:33N 40°42' W 074°00'0 0.0
2017-Mar-01 16:33N 40°42' W 074°00'1 0.7
2017-Mar-01 15:33N 40°42' W 074°01'1 0.7
2017-Mar-01 14:33N 40°42' W 074°00'2 0.1
2017-Feb-28 22:33N 40°44' W 074°01'2 2.4
2017-Feb-28 21:33N 40°41' W 074°02'1 1.3
2017-Feb-28 20:33N 40°42' W 074°00'0 0.0
2017-Feb-28 19:33N 40°42' W 074°00'1 1.2
2017-Feb-28 18:33N 40°42' W 074°01'1 1.2
2017-Feb-28 17:33N 40°42' W 074°00'0 0.0
2017-Feb-28 16:34N 40°42' W 074°00'1 1.1
2017-Feb-28 15:33N 40°42' W 074°01'1 1.1
2017-Feb-28 14:33N 40°42' W 074°00'2 1.6
2017-Feb-28 13:34N 40°44' W 074°01'0 0.0
2017-Feb-27 22:33N 40°44' W 074°01'3 2.7
2017-Feb-27 21:33N 40°41' W 074°02'2 1.6
2017-Feb-27 20:33N 40°42' W 074°00'0 0.0
2017-Feb-27 19:33N 40°42' W 074°00'1 1.2
2017-Feb-27 18:33N 40°42' W 074°01'1 1.2
2017-Feb-27 17:33N 40°42' W 074°00'0 0.0
2017-Feb-27 16:33N 40°42' W 074°00'1 1.3
2017-Feb-27 15:33N 40°41' W 074°02'1 1.3
2017-Feb-27 14:34N 40°42' W 074°00'2 1.6
2017-Feb-27 13:33N 40°44' W 074°01'  
2017-Feb-24 16:34N 40°44' W 074°01'1 1.0
2017-Feb-24 15:33N 40°45' W 074°01'1 1.0
2017-Feb-24 14:33N 40°44' W 074°01'0 0.0
2017-Feb-24 13:34N 40°44' W 074°01'  

Dump ship's entire track history